createdAt,value
2023-05-05T00:01:11.102Z,96138.44
2023-05-05T00:03:39.110Z,96142.41
2023-05-05T00:06:08.070Z,96132.84
2023-05-05T00:08:35.990Z,96137.19
2023-05-05T00:11:03.883Z,96134.88
2023-05-05T00:13:31.764Z,96125.78
2023-05-05T00:16:01.057Z,96130.50
2023-05-05T00:18:29.550Z,96125.72
2023-05-05T00:20:57.467Z,96121.84
2023-05-05T00:23:25.378Z,96118.69
2023-05-05T00:25:53.182Z,96107.22
2023-05-05T00:28:21.151Z,96105.19
2023-05-05T00:30:49.083Z,96106.03
2023-05-05T00:33:18.407Z,96107.56
2023-05-05T00:35:46.427Z,96106.03
2023-05-05T00:38:14.374Z,96102.88
2023-05-05T00:40:42.307Z,96110.00
2023-05-05T00:43:10.230Z,96108.06
2023-05-05T00:45:41.830Z,96109.63
2023-05-05T00:48:10.483Z,96102.00
2023-05-05T00:50:40.800Z,96108.25
2023-05-05T00:53:08.699Z,96108.00
2023-05-05T00:55:36.641Z,96113.31
2023-05-05T00:58:05.480Z,96108.59
2023-05-05T01:00:34.242Z,96101.00
2023-05-05T01:03:03.213Z,96098.13
2023-05-05T01:05:49.889Z,96091.78
2023-05-05T01:08:34.816Z,96088.66
2023-05-05T01:11:12.616Z,96083.94
2023-05-05T01:13:53.728Z,96087.56
2023-05-05T01:16:27.826Z,96090.69
2023-05-05T01:19:12.427Z,96093.84
2023-05-05T01:21:47.803Z,96098.56
2023-05-05T01:24:44.981Z,96102.19
2023-05-05T01:27:35.074Z,96095.50
2023-05-05T01:30:29.662Z,96106.91
2023-05-05T01:33:04.995Z,96105.34
2023-05-05T01:35:38.911Z,96107.78
2023-05-05T01:38:12.718Z,96109.25
2023-05-05T01:40:49.894Z,96107.78
2023-05-05T01:43:24.491Z,96111.81
2023-05-05T01:45:55.918Z,96109.47
2023-05-05T01:48:27.512Z,96107.88
2023-05-05T01:50:55.831Z,96107.97
2023-05-05T01:53:26.649Z,96116.22
2023-05-05T01:55:58.330Z,96123.06
2023-05-05T01:58:31.088Z,96117.50
2023-05-05T02:01:00.122Z,96120.63
2023-05-05T02:03:34.114Z,96109.59
2023-05-05T02:06:04.053Z,96123.72
2023-05-05T02:08:33.964Z,96129.66
2023-05-05T02:11:02.825Z,96118.13
2023-05-05T02:13:33.521Z,96109.16
2023-05-05T02:16:04.150Z,96108.75
2023-05-05T02:18:36.081Z,96113.91
2023-05-05T02:21:04.595Z,96109.25
2023-05-05T02:23:32.925Z,96115.31
2023-05-05T02:26:07.375Z,96112.84
2023-05-05T02:28:43.929Z,96113.28
2023-05-05T02:31:15.280Z,96104.66
2023-05-05T02:33:48.045Z,96113.81
2023-05-05T02:36:22.324Z,96111.56
2023-05-05T02:38:56.684Z,96102.81
2023-05-05T02:41:29.519Z,96115.44
2023-05-05T02:44:00.634Z,96111.56
2023-05-05T02:46:29.594Z,96106.03
2023-05-05T02:48:59.714Z,96107.63
2023-05-05T02:51:27.613Z,96109.63
2023-05-05T02:53:56.359Z,96101.63
2023-05-05T02:56:35.414Z,96109.63
2023-05-05T02:59:15.955Z,96103.63
2023-05-05T03:02:01.714Z,96100.91
2023-05-05T03:04:39.874Z,96093.00
2023-05-05T03:07:14.219Z,96104.56
2023-05-05T03:09:48.463Z,96096.25
2023-05-05T03:12:23.204Z,96096.31
2023-05-05T03:14:55.213Z,96094.31
2023-05-05T03:17:26.619Z,96098.25
2023-05-05T03:19:57.424Z,96102.25
2023-05-05T03:22:27.600Z,96097.50
2023-05-05T03:24:55.453Z,96105.50
2023-05-05T03:27:23.390Z,96098.00
2023-05-05T03:29:51.313Z,96103.94
2023-05-05T03:32:19.175Z,96096.84
2023-05-05T03:34:47.091Z,96104.81
2023-05-05T03:37:16.413Z,96099.25
2023-05-05T03:39:44.213Z,96104.44
2023-05-05T03:42:12.008Z,96102.44
2023-05-05T03:44:39.862Z,96111.94
2023-05-05T03:47:07.776Z,96108.00
2023-05-05T03:49:35.618Z,96103.28
2023-05-05T03:52:03.454Z,96096.16
2023-05-05T03:54:32.648Z,96105.63
2023-05-05T03:57:00.450Z,96108.00
2023-05-05T03:59:28.640Z,96105.63
2023-05-05T04:01:56.792Z,96098.59
2023-05-05T04:04:24.763Z,96097.44
2023-05-05T04:06:52.650Z,96100.19
2023-05-05T04:09:20.480Z,96100.59
2023-05-05T04:11:49.752Z,96108.09
2023-05-05T04:14:17.579Z,96102.16
2023-05-05T04:16:45.497Z,96102.97
2023-05-05T04:19:14.058Z,96100.97
2023-05-05T04:21:41.918Z,96100.16
2023-05-05T04:24:09.839Z,96096.63
2023-05-05T04:26:37.682Z,96107.69
2023-05-05T04:29:06.859Z,96106.53
2023-05-05T04:31:34.700Z,96115.22
2023-05-05T04:34:02.540Z,96117.56
2023-05-05T04:36:30.434Z,96130.25
2023-05-05T04:38:58.271Z,96127.06
2023-05-05T04:41:27.299Z,96129.47
2023-05-05T04:43:56.447Z,96140.94
2023-05-05T04:46:25.853Z,96146.84
2023-05-05T04:48:53.788Z,96138.13
2023-05-05T04:51:21.776Z,96145.25
2023-05-05T04:53:49.713Z,96143.28
2023-05-05T04:56:17.655Z,96146.44
2023-05-05T04:58:45.773Z,96161.88
2023-05-05T05:01:13.667Z,96132.22
2023-05-05T05:03:42.995Z,96138.97
2023-05-05T05:06:11.031Z,96146.09
2023-05-05T05:08:38.942Z,96150.84
2023-05-05T05:11:06.996Z,96150.81
2023-05-05T05:13:35.098Z,96149.22
2023-05-05T05:16:03.535Z,96141.25
2023-05-05T05:18:33.436Z,96134.16
2023-05-05T05:21:03.465Z,96157.78
2023-05-05T05:23:31.532Z,96131.66
2023-05-05T05:25:59.737Z,96152.97
2023-05-05T05:28:27.777Z,96156.88
2023-05-05T05:30:55.702Z,96154.44
2023-05-05T05:33:23.581Z,96159.06
2023-05-05T05:35:51.460Z,96143.94
2023-05-05T05:38:20.764Z,96152.63
2023-05-05T05:40:48.699Z,96142.28
2023-05-05T05:43:16.636Z,96139.03
2023-05-05T05:45:44.683Z,96150.44
2023-05-05T05:48:12.580Z,96142.06
2023-05-05T05:50:40.500Z,96133.19
2023-05-05T05:53:08.385Z,96167.16
2023-05-05T05:55:37.643Z,96155.91
2023-05-05T05:58:06.093Z,96141.78
2023-05-05T06:00:33.924Z,96161.88
2023-05-05T06:03:02.021Z,96137.31
2023-05-05T06:05:29.922Z,96167.91
2023-05-05T06:07:57.768Z,96173.25
2023-05-05T06:10:28.271Z,96158.88
2023-05-05T06:12:57.784Z,96160.84
2023-05-05T06:15:25.941Z,96168.28
2023-05-05T06:17:53.871Z,96166.63
2023-05-05T06:20:21.866Z,96161.50
2023-05-05T06:22:49.685Z,96159.31
2023-05-05T06:25:17.752Z,96161.91
2023-05-05T06:27:45.981Z,96159.13
2023-05-05T06:30:15.805Z,96160.94
2023-05-05T06:32:43.653Z,96145.97
2023-05-05T06:35:11.671Z,96153.59
2023-05-05T06:37:39.600Z,96157.22
2023-05-05T06:40:09.439Z,96150.75
2023-05-05T06:42:37.556Z,96163.91
2023-05-05T06:45:06.113Z,96158.19
2023-05-05T06:47:35.852Z,96158.56
2023-05-05T06:50:03.879Z,96164.28
2023-05-05T06:52:31.792Z,96165.31
2023-05-05T06:54:59.722Z,96168.78
2023-05-05T06:57:27.562Z,96164.59
2023-05-05T06:59:55.427Z,96162.78
2023-05-05T07:02:25.258Z,96178.38
2023-05-05T07:04:56.341Z,96177.50
2023-05-05T07:07:24.236Z,96175.94
2023-05-05T07:09:52.187Z,96172.53
2023-05-05T07:12:20.095Z,96168.94
2023-05-05T07:14:48.085Z,96178.19
2023-05-05T07:17:18.720Z,96175.38
2023-05-05T07:19:55.027Z,96166.56
2023-05-05T07:22:24.328Z,96168.16
2023-05-05T07:24:53.395Z,96176.50
2023-05-05T07:27:22.507Z,96171.06
2023-05-05T07:29:50.454Z,96171.34
2023-05-05T07:32:21.516Z,96169.91
2023-05-05T07:34:49.400Z,96178.09
2023-05-05T07:37:17.326Z,96180.69
2023-05-05T07:39:47.442Z,96170.03
2023-05-05T07:42:15.350Z,96159.91
2023-05-05T07:44:43.216Z,96165.91
2023-05-05T07:47:11.130Z,96171.66
2023-05-05T07:49:38.981Z,96173.78
2023-05-05T07:52:06.960Z,96173.34
2023-05-05T07:54:34.743Z,96165.06
2023-05-05T07:57:03.990Z,96171.28
2023-05-05T07:59:31.838Z,96166.03
2023-05-05T08:01:59.684Z,96171.63
2023-05-05T08:04:27.569Z,96172.19
2023-05-05T08:06:55.412Z,96175.47
2023-05-05T08:09:23.283Z,96175.38
2023-05-05T08:11:51.116Z,96181.09
2023-05-05T08:14:20.389Z,96174.16
2023-05-05T08:16:48.247Z,96175.50
2023-05-05T08:19:28.115Z,96167.44
2023-05-05T08:21:58.856Z,96165.03
2023-05-05T08:24:27.946Z,96172.78
2023-05-05T08:26:56.659Z,96167.19
2023-05-05T08:29:26.026Z,96172.84
2023-05-05T08:31:54.046Z,96171.28
2023-05-05T08:34:21.873Z,96172.78
2023-05-05T08:36:50.950Z,96169.41
2023-05-05T08:39:19.108Z,96174.91
2023-05-05T08:41:47.616Z,96164.50
2023-05-05T08:58:21.354Z,96165.06
2023-05-05T09:00:51.410Z,96171.09
2023-05-05T09:03:19.588Z,96168.28
2023-05-05T09:05:47.520Z,96170.41
2023-05-05T09:08:15.660Z,96168.38
2023-05-05T09:10:45.071Z,96179.66
2023-05-05T09:13:13.303Z,96178.09
2023-05-05T09:15:42.161Z,96172.19
2023-05-05T09:18:13.038Z,96168.34
2023-05-05T09:20:42.197Z,96169.97
2023-05-05T09:23:11.684Z,96169.84
2023-05-05T09:25:40.347Z,96175.38
2023-05-05T09:28:13.195Z,96165.78
2023-05-05T09:30:42.772Z,96172.34
2023-05-05T09:33:12.556Z,96174.03
2023-05-05T09:35:51.976Z,96174.09
2023-05-05T09:38:20.893Z,96172.94
2023-05-05T09:40:50.046Z,96169.50
2023-05-05T09:43:19.842Z,96165.78
2023-05-05T09:45:49.201Z,96160.69
2023-05-05T09:48:29.498Z,96155.59
2023-05-05T09:50:59.067Z,96153.53
2023-05-05T09:53:28.217Z,96154.34
2023-05-05T09:55:57.270Z,96158.56
2023-05-05T09:58:27.129Z,96170.63
2023-05-05T10:00:56.526Z,96163.59
2023-05-05T10:03:25.466Z,96147.88
2023-05-05T10:05:56.551Z,96157.97
2023-05-05T10:08:26.432Z,96148.22
2023-05-05T10:10:56.201Z,96147.75
2023-05-05T10:13:26.241Z,96158.41
2023-05-05T10:15:56.376Z,96168.28
2023-05-05T10:18:27.164Z,96162.97
2023-05-05T10:21:03.580Z,96166.41
2023-05-05T10:23:39.545Z,96167.03
2023-05-05T10:26:09.396Z,96176.06
2023-05-05T10:28:45.710Z,96162.31
2023-05-05T10:31:25.998Z,96167.03
2023-05-05T10:34:00.687Z,96159.75
2023-05-05T10:36:34.282Z,96157.34
2023-05-05T10:39:06.724Z,96159.81
2023-05-05T10:41:36.128Z,96158.91
2023-05-05T10:44:06.101Z,96152.63
2023-05-05T10:46:34.703Z,96149.47
2023-05-05T10:49:14.157Z,96130.94
2023-05-05T10:51:56.585Z,96129.25
2023-05-05T10:54:35.242Z,96129.69
2023-05-05T10:57:08.194Z,96138.97
2023-05-05T10:59:43.900Z,96135.06
2023-05-05T11:02:26.405Z,96135.69
2023-05-05T11:05:14.242Z,96135.16
2023-05-05T11:07:51.541Z,96129.44
2023-05-05T11:10:23.059Z,96130.06
2023-05-05T11:13:20.219Z,96128.03
2023-05-05T11:15:49.526Z,96124.16
2023-05-05T11:18:38.996Z,96125.72
2023-05-05T11:21:18.793Z,96114.06
2023-05-05T11:23:50.439Z,96114.66
2023-05-05T11:26:53.392Z,96126.81
2023-05-05T11:29:21.464Z,96122.44
2023-05-05T11:32:12.995Z,96120.19
2023-05-05T11:34:50.304Z,96108.13
2023-05-05T11:37:18.407Z,96120.84
2023-05-05T11:40:08.675Z,96118.00
2023-05-05T11:42:37.545Z,96120.38
2023-05-05T11:45:21.744Z,96123.56
2023-05-05T11:47:49.858Z,96107.94
2023-05-05T11:50:23.308Z,96110.91
2023-05-05T11:52:51.623Z,96118.41
2023-05-05T11:55:24.078Z,96119.19
2023-05-05T11:57:52.203Z,96117.47
2023-05-05T12:00:20.886Z,96115.59
2023-05-05T12:02:57.797Z,96115.91
2023-05-05T12:05:26.301Z,96097.00
2023-05-05T12:08:00.252Z,96095.50
2023-05-05T12:10:30.720Z,96114.63
2023-05-05T12:12:59.440Z,96105.38
2023-05-05T12:15:32.106Z,96103.00
2023-05-05T12:18:29.965Z,96090.34
2023-05-05T12:21:10.278Z,96087.78
2023-05-05T12:23:53.011Z,96086.63
2023-05-05T12:26:29.402Z,96093.81
2023-05-05T12:28:58.033Z,96080.81
2023-05-05T12:31:35.721Z,96072.41
2023-05-05T12:34:12.775Z,96069.75
2023-05-05T12:36:41.677Z,96089.63
2023-05-05T12:39:09.752Z,96091.72
2023-05-05T12:41:39.387Z,96068.69
2023-05-05T12:44:08.025Z,96083.47
2023-05-05T12:46:46.498Z,96086.91
2023-05-05T12:49:14.908Z,96071.50
2023-05-05T12:51:54.691Z,96067.44
2023-05-05T12:54:23.856Z,96060.81
2023-05-05T12:56:53.388Z,96066.03
2023-05-05T12:59:31.908Z,96077.09
2023-05-05T13:02:02.891Z,96076.81
2023-05-05T13:04:31.200Z,96077.72
2023-05-05T13:07:13.718Z,96078.59
2023-05-05T13:09:42.384Z,96066.59
2023-05-05T13:12:12.717Z,96063.03
2023-05-05T13:14:41.211Z,96054.44
2023-05-05T13:17:09.550Z,96060.25
2023-05-05T13:19:43.680Z,96049.94
2023-05-05T13:22:11.732Z,96053.38
2023-05-05T13:24:50.943Z,96040.34
2023-05-05T13:27:21.953Z,96035.91
2023-05-05T13:29:50.121Z,96047.16
2023-05-05T13:32:19.666Z,96040.13
2023-05-05T13:34:47.904Z,96035.06
2023-05-05T13:37:15.981Z,96029.03
2023-05-05T13:39:44.556Z,96028.59
2023-05-05T13:42:13.885Z,96020.50
2023-05-05T13:44:43.519Z,96007.16
2023-05-05T13:47:11.521Z,96015.19
2023-05-05T13:49:39.689Z,96011.06
2023-05-05T13:52:08.057Z,96003.63
2023-05-05T13:54:36.845Z,95985.63
2023-05-05T13:57:05.054Z,96006.75
2023-05-05T13:59:40.412Z,95980.59
2023-05-05T14:02:09.986Z,95991.38
2023-05-05T14:04:38.373Z,95992.34
2023-05-05T14:07:06.436Z,95990.16
2023-05-05T14:09:34.522Z,95977.94
2023-05-05T14:12:12.313Z,95981.34
2023-05-05T14:14:40.424Z,95983.25
2023-05-05T14:17:09.989Z,95975.09
2023-05-05T14:19:38.223Z,95963.44
2023-05-05T14:22:06.626Z,95969.31
2023-05-05T14:24:34.792Z,95958.50
2023-05-05T14:27:04.521Z,95953.19
2023-05-05T14:29:32.585Z,95953.50
2023-05-05T14:32:01.915Z,95960.72
2023-05-05T14:34:31.503Z,95961.66
2023-05-05T14:36:59.722Z,95962.31
2023-05-05T14:39:27.842Z,95962.09
2023-05-05T14:41:56.074Z,95961.09
2023-05-05T14:44:24.175Z,95962.09
2023-05-05T14:46:53.681Z,95951.03
2023-05-05T14:49:21.959Z,95959.97
2023-05-05T14:51:51.664Z,95951.72
2023-05-05T14:54:27.969Z,95953.22
2023-05-05T14:57:00.396Z,95953.63
2023-05-05T14:59:31.282Z,95955.66
2023-05-05T15:02:02.467Z,95943.69
2023-05-05T15:04:30.959Z,95927.59
2023-05-05T15:07:02.210Z,95948.69
2023-05-05T15:09:31.569Z,95937.25
2023-05-05T15:11:59.759Z,95929.44
2023-05-05T15:14:29.361Z,95932.72
2023-05-05T15:16:58.137Z,95930.69
2023-05-05T15:19:26.181Z,95928.66
2023-05-05T15:22:01.422Z,95912.84
2023-05-05T15:24:31.167Z,95922.53
2023-05-05T15:26:59.367Z,95919.66
2023-05-05T15:29:27.409Z,95916.59
2023-05-05T15:31:55.524Z,95923.94
2023-05-05T15:34:23.875Z,95924.38
2023-05-05T15:36:51.908Z,95935.63
2023-05-05T15:39:20.916Z,95930.00
2023-05-05T15:41:52.518Z,95919.91
2023-05-05T15:44:22.918Z,95936.03
2023-05-05T15:46:55.589Z,95920.38
2023-05-05T15:49:25.210Z,95932.44
2023-05-05T15:54:51.110Z,95943.09
2023-05-05T15:57:20.676Z,95950.59
2023-05-05T15:59:52.234Z,95937.31
2023-05-05T16:02:20.584Z,95942.50
2023-05-05T16:04:48.830Z,95936.84
2023-05-05T16:07:17.028Z,95934.03
2023-05-05T16:09:45.441Z,95923.22
2023-05-05T16:12:13.736Z,95931.97
2023-05-05T16:14:43.241Z,95924.28
2023-05-05T16:17:11.520Z,95926.16
2023-05-05T16:19:42.683Z,95925.25
2023-05-05T16:22:10.794Z,95929.81
2023-05-05T16:24:38.850Z,95927.75
2023-05-05T16:27:06.906Z,95919.47
2023-05-05T16:29:34.850Z,95924.31
2023-05-05T16:32:04.803Z,95895.38
2023-05-05T16:34:32.917Z,95898.19
2023-05-05T16:37:01.291Z,95919.66
2023-05-05T16:39:29.347Z,95931.38
2023-05-05T16:41:57.416Z,95910.09
2023-05-05T16:44:25.724Z,95904.19
2023-05-05T16:46:53.710Z,95914.50
2023-05-05T16:49:25.951Z,95894.50
2023-05-05T16:51:54.091Z,95914.66
2023-05-05T16:54:22.127Z,95906.34
2023-05-05T16:57:09.664Z,95910.41
2023-05-05T16:59:44.877Z,95908.81
2023-05-05T17:02:12.939Z,95906.63
2023-05-05T17:04:42.899Z,95911.00
2023-05-05T17:07:15.314Z,95907.53
2023-05-05T17:09:46.644Z,95882.66
2023-05-05T17:12:17.129Z,95875.63
2023-05-05T17:14:46.039Z,95883.25
2023-05-05T17:17:15.616Z,95882.09
2023-05-05T17:19:46.709Z,95871.28
2023-05-05T17:22:15.731Z,95866.91
2023-05-05T17:24:49.835Z,95855.34
2023-05-05T17:27:20.047Z,95858.75
2023-05-05T17:30:03.110Z,95862.97
2023-05-05T17:32:37.107Z,95862.06
2023-05-05T17:35:07.812Z,95868.59
2023-05-05T17:37:36.192Z,95855.78
2023-05-05T17:40:04.445Z,95846.41
2023-05-05T17:42:33.149Z,95873.69
2023-05-05T17:45:01.324Z,95865.69
2023-05-05T17:47:30.040Z,95844.75
2023-05-05T17:49:58.349Z,95851.94
2023-05-05T17:52:27.804Z,95860.47
2023-05-05T17:54:55.966Z,95849.63
2023-05-05T17:57:24.206Z,95856.69
2023-05-05T17:59:55.089Z,95856.59
2023-05-05T18:02:29.510Z,95871.53
2023-05-05T18:04:57.617Z,95863.19
2023-05-05T18:07:27.771Z,95863.78
2023-05-05T18:09:57.598Z,95881.53
2023-05-05T18:12:28.915Z,95884.44
2023-05-05T18:15:06.014Z,95890.03
2023-05-05T18:21:17.840Z,95912.78
2023-05-05T18:23:47.346Z,95922.91
2023-05-05T18:26:15.582Z,95926.84
2023-05-05T18:28:46.017Z,95939.94
2023-05-05T18:31:13.996Z,95953.56
2023-05-05T18:33:42.299Z,95976.44
2023-05-05T18:36:10.200Z,95992.31
2023-05-05T18:38:38.193Z,95997.38
2023-05-05T18:41:07.697Z,96006.94
2023-05-05T18:43:35.692Z,96010.88
2023-05-05T18:46:03.610Z,96014.03
2023-05-05T18:48:31.944Z,96021.53
2023-05-05T18:51:02.679Z,96042.72
2023-05-05T18:53:31.284Z,96036.91
2023-05-05T18:56:00.604Z,96041.19
2023-05-05T18:58:30.787Z,96044.13
2023-05-05T19:00:58.969Z,96046.28
2023-05-05T19:03:26.893Z,96047.69
2023-05-05T19:05:54.822Z,96040.56
2023-05-05T19:08:22.774Z,96039.53
2023-05-05T19:10:50.599Z,96042.28
2023-05-05T19:13:18.497Z,96057.22
2023-05-05T19:15:47.925Z,96057.34
2023-05-05T19:18:16.096Z,96053.50
2023-05-05T19:20:43.927Z,96043.06
2023-05-05T19:23:14.899Z,96034.91
2023-05-05T19:25:42.773Z,96037.03
2023-05-05T19:28:10.738Z,96033.03
2023-05-05T19:30:38.927Z,96020.50
2023-05-05T19:33:08.406Z,96020.88
2023-05-05T19:35:36.312Z,96030.31
2023-05-05T19:38:04.272Z,96030.81
2023-05-05T19:40:32.163Z,96036.19
2023-05-05T19:43:00.055Z,96043.50
2023-05-05T19:45:27.894Z,96049.34
2023-05-05T19:47:56.753Z,96054.16
2023-05-05T19:50:26.914Z,96063.94
2023-05-05T19:52:55.365Z,96069.72
2023-05-05T19:55:23.491Z,96067.78
2023-05-05T19:57:51.411Z,96073.66
2023-05-05T20:01:23.031Z,96070.38
2023-05-05T20:03:51.175Z,96075.59
2023-05-05T20:06:20.552Z,96080.53
2023-05-05T20:08:48.664Z,96067.28
2023-05-05T20:11:17.914Z,96061.47
2023-05-05T20:13:45.869Z,96071.75
2023-05-05T20:16:15.715Z,96062.59
2023-05-05T20:18:58.637Z,96053.94
2023-05-05T20:21:27.921Z,96067.63
2023-05-05T20:24:19.342Z,96055.63
2023-05-05T20:28:10.683Z,96062.94
2023-05-05T20:30:38.544Z,96059.47
2023-05-05T20:33:06.523Z,96077.66
2023-05-05T20:35:35.457Z,96078.50
2023-05-05T20:41:10.478Z,96067.34
2023-05-05T20:43:38.629Z,96071.72
2023-05-05T20:46:07.171Z,96065.44
2023-05-05T20:48:35.362Z,96070.63
2023-05-05T20:51:04.732Z,96083.28
2023-05-05T20:53:34.145Z,96085.91
2023-05-05T20:56:02.124Z,96081.31
2023-05-05T20:58:30.574Z,96091.69
2023-05-05T21:00:58.435Z,96094.44
2023-05-05T21:03:26.544Z,96090.84
2023-05-05T21:20:30.313Z,96090.22
2023-05-05T21:22:58.142Z,96095.88
2023-05-05T21:25:26.730Z,96093.63
2023-05-05T21:31:43.743Z,96094.25
2023-05-05T21:34:14.157Z,96089.66
2023-05-05T21:36:43.381Z,96095.53
2023-05-05T21:39:11.286Z,96097.47
2023-05-05T21:41:39.251Z,96099.19
2023-05-05T21:44:09.922Z,96096.50
2023-05-05T21:46:37.826Z,96092.81
2023-05-05T21:49:14.311Z,96091.69
2023-05-05T21:51:45.104Z,96088.53
2023-05-05T21:54:13.275Z,96082.22
2023-05-05T21:56:41.131Z,96085.41
2023-05-05T21:59:09.089Z,96079.75
2023-05-05T22:02:03.508Z,96078.72
2023-05-05T22:04:31.803Z,96071.44
2023-05-05T22:07:04.287Z,96096.69
2023-05-05T22:09:34.027Z,96081.03
2023-05-05T22:12:03.984Z,96107.56
2023-05-05T22:14:38.356Z,96102.91
2023-05-05T22:17:06.251Z,96099.25
2023-05-05T22:19:34.097Z,96102.59
2023-05-05T22:22:03.326Z,96100.19
2023-05-05T22:24:31.236Z,96099.72
2023-05-05T22:26:59.061Z,96096.41
2023-05-05T22:29:26.948Z,96099.88
2023-05-05T22:31:54.857Z,96095.88
2023-05-05T22:34:23.822Z,96103.41
2023-05-05T22:36:51.662Z,96103.69
2023-05-05T22:39:23.703Z,96096.94
2023-05-05T22:41:51.734Z,96102.03
2023-05-05T22:44:21.550Z,96096.41
2023-05-05T22:46:49.463Z,96097.19
2023-05-05T22:49:17.394Z,96103.78
2023-05-05T22:51:45.310Z,96101.06
2023-05-05T22:54:13.114Z,96102.19
2023-05-05T22:56:42.290Z,96106.22
2023-05-05T22:59:10.185Z,96099.41
2023-05-05T23:01:38.841Z,96100.63
2023-05-05T23:04:07.316Z,96092.63
2023-05-05T23:06:35.208Z,96087.00
2023-05-05T23:09:03.109Z,96081.88
2023-05-05T23:11:30.964Z,96082.97
2023-05-05T23:14:00.194Z,96102.78
2023-05-05T23:16:28.127Z,96094.09
2023-05-05T23:18:56.072Z,96097.31
2023-05-05T23:21:23.824Z,96097.25
2023-05-05T23:23:51.523Z,96098.41
2023-05-05T23:26:22.351Z,96095.59
2023-05-05T23:28:50.132Z,96092.19
2023-05-05T23:31:19.386Z,96099.69
2023-05-05T23:33:47.273Z,96101.50
2023-05-05T23:36:15.160Z,96093.13
2023-05-05T23:38:42.941Z,96090.59
2023-05-05T23:41:10.879Z,96093.72
2023-05-05T23:43:38.695Z,96085.66
2023-05-05T23:46:06.682Z,96089.56
2023-05-05T23:48:35.859Z,96076.94
2023-05-05T23:51:03.691Z,96083.03
2023-05-05T23:53:31.507Z,96077.34
2023-05-05T23:55:59.366Z,96071.41
2023-05-05T23:58:27.568Z,96068.53
